Time;durP1;ratioP1;P1;durP2;ratioP2;P2;SDS_P1;SDS_P2;PMS_P1;PMS_P2;Temp;Humidity;BMP_temperature;BMP_pressure;BME280_temperature;BME280_humidity;BME280_pressure;Samples;Min_cycle;Max_cycle;Signal;HPM_P1;HPM_P2
2023/08/20 00:00:23;;;;;;;10.20;9.30;;;;;;;19.25;99.79;97656.36;110117;1244;70869;-69
2023/08/20 00:03:15;;;;;;;10.00;9.10;;;;;;;19.20;100.00;97651.98;110070;1244;68455;-69
2023/08/20 00:05:46;;;;;;;9.70;8.80;;;;;;;19.15;100.00;97653.50;110085;1244;69918;-70
2023/08/20 00:08:19;;;;;;;8.50;7.70;;;;;;;19.11;100.00;97651.66;110111;1246;59769;-70
2023/08/20 00:10:51;;;;;;;9.20;8.40;;;;;;;19.08;99.95;97651.27;110086;1244;59747;-71
2023/08/20 00:13:21;;;;;;;9.40;8.30;;;;;;;19.04;100.00;97652.70;110091;1244;70648;-69
2023/08/20 00:15:55;;;;;;;8.80;8.00;;;;;;;19.01;100.00;97655.33;110083;1244;69263;-71
2023/08/20 00:18:28;;;;;;;9.20;8.40;;;;;;;19.00;100.00;97658.84;110055;1250;69207;-69
2023/08/20 00:21:02;;;;;;;9.30;8.40;;;;;;;18.95;100.00;97659.86;110051;1244;59657;-70
2023/08/20 00:23:37;;;;;;;9.70;8.70;;;;;;;18.91;100.00;97660.62;110082;1245;59750;-69
2023/08/20 00:26:08;;;;;;;9.30;8.50;;;;;;;18.90;100.00;97660.63;110048;1244;70609;-69
2023/08/20 00:28:38;;;;;;;8.40;7.70;;;;;;;18.86;100.00;97658.36;110054;1244;69786;-69
2023/08/20 00:31:10;;;;;;;8.80;8.00;;;;;;;18.82;100.00;97664.20;109820;1243;69139;-69
2023/08/20 00:33:40;;;;;;;9.10;8.30;;;;;;;18.80;100.00;97665.94;110038;1244;59686;-69
2023/08/20 00:36:26;;;;;;;9.80;8.90;;;;;;;18.77;100.00;97666.06;110109;1245;59619;-69
2023/08/20 00:38:59;;;;;;;8.50;7.70;;;;;;;18.74;100.00;97667.86;109792;1245;71264;-68
2023/08/20 00:41:30;;;;;;;9.00;8.10;;;;;;;18.72;100.00;97670.54;110072;1243;68344;-69
2023/08/20 00:44:01;;;;;;;8.70;7.80;;;;;;;18.70;100.00;97673.59;110057;1244;68670;-69
2023/08/20 00:46:32;;;;;;;8.60;7.80;;;;;;;18.68;99.43;97675.84;109804;1244;59723;-69
2023/08/20 00:49:04;;;;;;;10.00;9.00;;;;;;;18.67;99.89;97675.06;110125;1244;59753;-70
2023/08/20 00:51:36;;;;;;;9.60;8.60;;;;;;;18.65;100.00;97677.70;110088;1244;71439;-70
2023/08/20 00:54:10;;;;;;;8.90;8.10;;;;;;;18.62;99.71;97673.45;109785;1242;69370;-71
2023/08/20 00:56:46;;;;;;;9.30;8.40;;;;;;;18.58;100.00;97677.40;109930;1244;69289;-71
2023/08/20 00:59:18;;;;;;;11.90;10.80;;;;;;;18.52;98.93;97677.42;110101;1243;59653;-70
2023/08/20 01:01:49;;;;;;;11.90;10.70;;;;;;;18.49;99.83;97675.35;110087;1244;59702;-69
2023/08/20 01:04:20;;;;;;;10.00;9.10;;;;;;;18.46;100.00;97675.27;110039;1245;69997;-70
2023/08/20 01:07:03;;;;;;;9.80;8.90;;;;;;;18.43;100.00;97676.27;110102;1244;68777;-68
2023/08/20 01:09:50;;;;;;;8.60;7.80;;;;;;;18.41;99.94;97676.12;110088;1241;69116;-70
2023/08/20 01:12:24;;;;;;;8.80;8.00;;;;;;;18.39;100.00;97674.77;110063;1245;59754;-70
2023/08/20 01:14:54;;;;;;;9.40;8.60;;;;;;;18.34;98.99;97669.26;110079;1243;59633;-69
2023/08/20 01:17:24;;;;;;;9.70;8.80;;;;;;;18.26;99.52;97667.77;110090;1243;70657;-71
2023/08/20 01:19:55;;;;;;;8.50;7.70;;;;;;;18.20;100.00;97668.33;109858;1245;69188;-71
2023/08/20 01:23:05;;;;;;;9.40;8.50;;;;;;;18.16;100.00;97671.06;110039;1245;69299;-71
2023/08/20 01:26:13;;;;;;;9.30;8.30;;;;;;;18.09;100.00;97665.57;110059;1245;59724;-70
2023/08/20 01:28:46;;;;;;;8.60;7.80;;;;;;;18.01;100.00;97666.84;110097;1244;59753;-70
2023/08/20 01:31:20;;;;;;;8.70;7.90;;;;;;;17.96;99.83;97668.47;110056;1244;70809;-71
2023/08/20 01:33:54;;;;;;;8.80;7.90;;;;;;;17.92;99.94;97669.59;110009;1245;69489;-70
2023/08/20 01:36:31;;;;;;;8.60;7.80;;;;;;;17.87;100.00;97672.19;110032;1245;69652;-71
2023/08/20 01:39:04;;;;;;;8.00;7.20;;;;;;;17.83;100.00;97676.27;110110;1244;59741;-70
2023/08/20 01:41:36;;;;;;;9.10;8.20;;;;;;;17.79;100.00;97682.83;110101;1244;59750;-69
2023/08/20 01:44:07;;;;;;;10.00;9.10;;;;;;;17.75;100.00;97685.98;110120;1245;70721;-69
2023/08/20 01:46:42;;;;;;;8.90;8.10;;;;;;;17.75;100.00;97680.20;110148;1245;69266;-70
2023/08/20 01:49:15;;;;;;;10.40;9.40;;;;;;;17.74;100.00;97679.95;109975;1245;69308;-69
2023/08/20 01:51:49;;;;;;;10.40;9.40;;;;;;;17.73;100.00;97680.34;110106;1244;59689;-69
2023/08/20 01:54:21;;;;;;;10.60;9.60;;;;;;;17.74;100.00;97681.54;110098;1244;59688;-69
2023/08/20 01:56:52;;;;;;;11.60;10.50;;;;;;;17.71;100.00;97678.60;110092;1244;71326;-71
2023/08/20 01:59:24;;;;;;;12.50;11.20;;;;;;;17.69;100.00;97681.63;109934;1243;68372;-69
2023/08/20 02:01:57;;;;;;;11.10;10.00;;;;;;;17.68;100.00;97679.77;110061;1244;67617;-69
2023/08/20 02:04:29;;;;;;;12.40;11.30;;;;;;;17.67;100.00;97680.20;110080;1244;59729;-69
2023/08/20 02:07:00;;;;;;;11.40;10.30;;;;;;;17.65;100.00;97679.34;109963;1244;59734;-70
2023/08/20 02:09:32;;;;;;;11.50;10.40;;;;;;;17.64;100.00;97679.46;110081;1244;70717;-71
2023/08/20 02:12:03;;;;;;;11.10;10.00;;;;;;;17.63;100.00;97681.38;110226;1243;68589;-70
2023/08/20 02:14:36;;;;;;;11.20;10.20;;;;;;;17.62;100.00;97677.97;110127;1246;68307;-70
2023/08/20 02:17:08;;;;;;;11.30;10.10;;;;;;;17.58;100.00;97680.20;110261;1245;59746;-70
2023/08/20 02:19:41;;;;;;;12.50;10.90;;;;;;;17.54;100.00;97682.83;110236;1244;59808;-70
2023/08/20 02:22:13;;;;;;;12.20;11.00;;;;;;;17.52;100.00;97684.00;110131;1243;71428;-70
2023/08/20 02:24:45;;;;;;;11.20;10.10;;;;;;;17.50;100.00;97688.60;109795;1245;69291;-70
2023/08/20 02:27:16;;;;;;;10.90;10.00;;;;;;;17.48;100.00;97689.14;109910;1245;69727;-70
2023/08/20 02:29:47;;;;;;;10.40;9.50;;;;;;;17.45;100.00;97686.63;110140;1244;59735;-70
2023/08/20 02:32:17;;;;;;;10.70;9.50;;;;;;;17.43;100.00;97687.17;110141;1245;59692;-70
2023/08/20 02:34:54;;;;;;;9.30;8.40;;;;;;;17.42;100.00;97688.11;110243;1244;71700;-70
2023/08/20 02:37:28;;;;;;;8.70;7.80;;;;;;;17.41;100.00;97689.65;110099;1244;69248;-69
2023/08/20 02:39:59;;;;;;;8.70;7.90;;;;;;;17.39;100.00;97683.66;109893;1245;69296;-69
2023/08/20 02:42:29;;;;;;;9.50;8.60;;;;;;;17.38;100.00;97682.69;110114;1244;59710;-70
2023/08/20 02:45:02;;;;;;;9.70;8.70;;;;;;;17.37;100.00;97687.02;110129;1244;59674;-70
2023/08/20 02:47:34;;;;;;;8.20;7.40;;;;;;;17.35;100.00;97687.63;110122;1245;70484;-70
2023/08/20 02:50:08;;;;;;;8.90;8.00;;;;;;;17.33;100.00;97687.40;110068;1245;68669;-70
2023/08/20 02:52:39;;;;;;;9.00;8.10;;;;;;;17.31;100.00;97688.61;110086;1244;68455;-70
2023/08/20 02:55:10;;;;;;;9.40;8.40;;;;;;;17.29;100.00;97690.38;110121;1244;59739;-70
2023/08/20 02:57:42;;;;;;;8.60;7.80;;;;;;;17.28;100.00;97692.60;110156;1244;59768;-70
2023/08/20 03:00:15;;;;;;;9.00;8.10;;;;;;;17.28;100.00;97694.19;110113;1245;70715;-69
2023/08/20 03:02:48;;;;;;;8.50;7.70;;;;;;;17.27;100.00;97690.94;110130;1244;69326;-69
2023/08/20 03:05:21;;;;;;;9.30;8.40;;;;;;;17.27;100.00;97692.71;110059;1244;68335;-70
2023/08/20 03:07:52;;;;;;;9.00;8.10;;;;;;;17.27;100.00;97693.98;109798;1244;59741;-70
2023/08/20 03:10:22;;;;;;;8.90;8.00;;;;;;;17.25;100.00;97693.99;110085;1245;59629;-70
2023/08/20 03:12:55;;;;;;;8.80;8.00;;;;;;;17.23;100.00;97695.95;110090;1244;71367;-70
2023/08/20 03:15:27;;;;;;;10.00;9.10;;;;;;;17.20;100.00;97688.48;110111;1244;68173;-70
2023/08/20 03:17:59;;;;;;;8.30;7.50;;;;;;;17.18;100.00;97689.15;110032;1245;68517;-70
2023/08/20 03:20:31;;;;;;;8.50;7.70;;;;;;;17.17;100.00;97690.13;110071;1245;59658;-69
2023/08/20 03:23:02;;;;;;;9.00;8.10;;;;;;;17.15;100.00;97688.40;110058;1245;59775;-69
2023/08/20 03:25:33;;;;;;;8.70;7.80;;;;;;;17.14;100.00;97686.98;110099;1243;71226;-69
2023/08/20 03:28:04;;;;;;;9.20;8.30;;;;;;;17.14;100.00;97688.35;110092;1246;68658;-69
2023/08/20 03:30:37;;;;;;;9.30;8.40;;;;;;;17.14;100.00;97686.59;110004;1245;68344;-69
2023/08/20 03:33:09;;;;;;;8.70;7.90;;;;;;;17.14;100.00;97691.66;110091;1244;60098;-69
2023/08/20 03:35:40;;;;;;;9.40;8.40;;;;;;;17.14;100.00;97690.70;109774;1245;59756;-70
2023/08/20 03:38:10;;;;;;;10.40;9.40;;;;;;;17.12;100.00;97693.60;110145;1244;71634;-69
2023/08/20 03:40:42;;;;;;;12.40;10.30;;;;;;;17.12;100.00;97691.91;110106;1245;69355;-69
2023/08/20 03:43:13;;;;;;;11.20;10.10;;;;;;;17.10;100.00;97693.89;110063;1245;68701;-69
2023/08/20 03:45:50;;;;;;;9.00;8.10;;;;;;;17.07;100.00;97694.30;110111;1245;59714;-69
2023/08/20 03:48:23;;;;;;;9.50;8.50;;;;;;;17.08;100.00;97695.33;109875;1245;59733;-69
2023/08/20 03:50:57;;;;;;;9.20;8.40;;;;;;;17.08;100.00;97700.69;110061;1244;70889;-69
2023/08/20 03:53:30;;;;;;;8.90;8.00;;;;;;;17.09;100.00;97700.42;110065;1245;69155;-69
2023/08/20 03:56:01;;;;;;;8.60;7.80;;;;;;;17.09;100.00;97699.39;110053;1245;68447;-71
2023/08/20 03:58:31;;;;;;;8.50;7.70;;;;;;;17.09;100.00;97699.00;109996;1245;59733;-69
2023/08/20 04:01:03;;;;;;;9.90;8.90;;;;;;;17.10;100.00;97700.40;110000;1245;59698;-69
2023/08/20 04:03:34;;;;;;;9.50;8.60;;;;;;;17.10;100.00;97704.95;110198;1244;70436;-69
2023/08/20 04:06:07;;;;;;;10.30;9.40;;;;;;;17.12;100.00;97709.44;110127;1243;68433;-69
2023/08/20 04:08:38;;;;;;;10.00;9.00;;;;;;;17.15;100.00;97710.63;110110;1245;68528;-69
2023/08/20 04:11:10;;;;;;;9.30;8.50;;;;;;;17.21;100.00;97711.48;110114;1245;59686;-69
2023/08/20 04:13:43;;;;;;;9.80;8.80;;;;;;;17.33;100.00;97711.13;110072;1244;59670;-69
2023/08/20 04:16:13;;;;;;;10.20;9.20;;;;;;;17.49;100.00;97712.05;110104;1243;71402;-69
2023/08/20 04:18:44;;;;;;;10.00;9.00;;;;;;;17.66;100.00;97706.72;110043;1245;69275;-69
2023/08/20 04:21:14;;;;;;;10.20;9.20;;;;;;;17.81;100.00;97707.16;110065;1245;69482;-70
2023/08/20 04:23:44;;;;;;;10.10;9.00;;;;;;;17.92;100.00;97709.19;109842;1244;59718;-70
2023/08/20 04:26:14;;;;;;;;;;;;;;;18.02;100.00;97709.63;109873;1245;59612;-69
2023/08/20 04:28:44;;;;;;;8.30;7.50;;;;;;;18.12;100.00;97708.96;109816;1244;70452;-70
2023/08/20 04:31:15;;;;;;;8.80;7.90;;;;;;;18.17;100.00;97705.80;110089;1243;68349;-71
2023/08/20 04:33:50;;;;;;;8.60;7.80;;;;;;;18.23;100.00;97701.85;110124;1247;68973;-70
2023/08/20 04:36:21;;;;;;;8.20;7.40;;;;;;;18.36;100.00;97708.23;110123;1245;59757;-70
2023/08/20 04:38:52;;;;;;;9.20;8.40;;;;;;;18.49;100.00;97712.14;110008;1245;59707;-69
2023/08/20 04:41:22;;;;;;;8.00;7.20;;;;;;;18.65;100.00;97714.30;109958;1244;71470;-70
2023/08/20 04:43:51;;;;;;;8.50;7.80;;;;;;;18.85;100.00;97715.05;110275;1244;69827;-68
2023/08/20 04:46:23;;;;;;;8.90;8.00;;;;;;;19.08;100.00;97715.33;109852;1248;68426;-70
2023/08/20 04:48:52;;;;;;;;;;;;;;;19.34;100.00;97719.38;110214;1244;59764;-70
2023/08/20 04:51:22;;;;;;;9.40;8.30;;;;;;;19.54;100.00;97721.37;110105;1245;59730;-68
2023/08/20 04:53:53;;;;;;;9.20;8.30;;;;;;;19.80;100.00;97723.23;110114;1245;71759;-70
2023/08/20 04:56:22;;;;;;;;;;;;;;;20.06;100.00;97724.59;110146;1246;69245;-70
2023/08/20 04:58:52;;;;;;;8.70;7.80;;;;;;;20.24;97.86;97723.05;110143;1243;69243;-70
2023/08/20 05:01:40;;;;;;;7.80;7.10;;;;;;;20.45;97.86;97717.30;110086;1245;59801;-68
2023/08/20 05:04:10;;;;;;;7.60;7.00;;;;;;;20.75;99.92;97716.59;110146;1241;59750;-68
2023/08/20 05:06:40;;;;;;;7.30;6.60;;;;;;;21.11;100.00;97717.17;110142;1245;71517;-68
2023/08/20 05:09:10;;;;;;;7.60;6.90;;;;;;;21.44;99.94;97720.98;110142;1245;68497;-69
2023/08/20 05:11:39;;;;;;;7.30;6.70;;;;;;;21.75;98.94;97721.58;110147;1243;69249;-67
2023/08/20 05:14:08;;;;;;;7.10;6.40;;;;;;;22.01;96.38;97728.67;110080;1245;59674;-68
2023/08/20 05:16:38;;;;;;;7.00;6.30;;;;;;;22.28;95.87;97729.73;110139;1245;59753;-67
2023/08/20 05:19:09;;;;;;;8.00;7.30;;;;;;;22.29;86.13;97727.83;110150;1245;71403;-69
2023/08/20 05:21:38;;;;;;;8.30;7.50;;;;;;;22.45;88.28;97730.19;110075;1244;68501;-69
2023/08/20 05:24:09;;;;;;;7.80;7.10;;;;;;;22.52;84.86;97727.94;110250;1245;68329;-68
2023/08/20 05:26:38;;;;;;;7.90;7.20;;;;;;;22.69;85.36;97728.58;110160;1241;59723;-69
2023/08/20 05:29:08;;;;;;;7.40;6.80;;;;;;;22.94;84.43;97727.52;110156;1245;59681;-69
2023/08/20 05:31:37;;;;;;;8.20;7.30;;;;;;;23.21;82.95;97729.42;110133;1241;70648;-70
2023/08/20 05:34:07;;;;;;;8.80;7.80;;;;;;;23.41;80.86;97725.77;110224;1245;69835;-69
2023/08/20 05:36:37;;;;;;;7.80;7.20;;;;;;;23.62;79.30;97733.04;110102;1245;69719;-68
2023/08/20 05:39:10;;;;;;;7.40;6.70;;;;;;;23.96;84.12;97735.09;110148;1241;59742;-68
2023/08/20 05:41:40;;;;;;;6.60;6.10;;;;;;;24.28;81.89;97733.25;109899;1245;59723;-67
2023/08/20 05:44:10;;;;;;;7.70;6.90;;;;;;;24.47;78.10;97737.86;109892;1245;71454;-70
2023/08/20 05:46:40;;;;;;;7.60;6.90;;;;;;;24.64;79.96;97740.55;110134;1244;69157;-67
2023/08/20 05:49:10;;;;;;;7.70;7.00;;;;;;;24.73;75.91;97741.58;110088;1245;70213;-67
2023/08/20 05:51:39;;;;;;;;;;;;;;;25.07;77.00;97738.19;110033;1245;59744;-66
2023/08/20 05:54:08;;;;;;;7.50;6.80;;;;;;;25.32;74.67;97736.27;110103;1245;59681;-67
2023/08/20 05:56:38;;;;;;;7.00;6.40;;;;;;;25.59;73.38;97733.27;110144;1243;71933;-68
2023/08/20 05:59:07;;;;;;;8.20;7.50;;;;;;;25.61;71.43;97734.21;110114;1243;69101;-67
2023/08/20 06:01:36;;;;;;;8.60;7.80;;;;;;;25.69;74.26;97729.85;110338;1245;69913;-69
2023/08/20 06:04:05;;;;;;;8.90;8.10;;;;;;;25.69;72.10;97731.38;110140;1245;59694;-67
2023/08/20 06:06:35;;;;;;;10.10;9.10;;;;;;;25.62;71.30;97730.52;110189;1245;59680;-66
2023/08/20 06:09:05;;;;;;;8.60;7.80;;;;;;;25.56;70.87;97733.49;110190;1242;69581;-67
2023/08/20 06:11:38;;;;;;;8.80;8.00;;;;;;;25.47;70.76;97735.15;110148;1243;69252;-68
2023/08/20 06:14:07;;;;;;;8.00;7.20;;;;;;;25.60;70.45;97731.70;110158;1248;69913;-68
2023/08/20 06:16:36;;;;;;;8.90;8.00;;;;;;;25.74;69.32;97730.21;110211;1245;59797;-68
2023/08/20 06:19:05;;;;;;;;;;;;;;;25.90;66.79;97728.45;110177;1244;59630;-69
2023/08/20 06:21:34;;;;;;;6.90;6.30;;;;;;;25.84;64.10;97725.77;110187;1248;71350;-67
2023/08/20 06:24:04;;;;;;;7.80;7.10;;;;;;;26.04;64.37;97724.69;110276;1245;69829;-68
2023/08/20 06:26:33;;;;;;;7.20;6.50;;;;;;;26.07;60.29;97724.20;110179;1245;69682;-67
2023/08/20 06:29:02;;;;;;;;;;;;;;;26.46;57.90;97723.66;110141;1245;59746;-68
2023/08/20 06:31:31;;;;;;;7.90;7.20;;;;;;;26.54;58.96;97725.73;110210;1241;59741;-68
2023/08/20 06:34:00;;;;;;;8.30;7.40;;;;;;;26.65;60.24;97722.91;110146;1246;71950;-68
2023/08/20 06:36:29;;;;;;;9.00;8.00;;;;;;;27.01;60.83;97719.46;110199;1244;69884;-67
2023/08/20 06:38:59;;;;;;;12.20;7.90;;;;;;;27.39;60.98;97716.02;110166;1243;69334;-67
2023/08/20 06:41:29;;;;;;;8.00;7.30;;;;;;;27.56;60.09;97720.10;110121;1245;59657;-68
2023/08/20 06:43:58;;;;;;;7.40;6.70;;;;;;;27.75;58.36;97724.71;110156;1244;59708;-68
2023/08/20 06:46:27;;;;;;;9.50;8.60;;;;;;;27.77;57.49;97722.70;110191;1241;72308;-68
2023/08/20 06:48:57;;;;;;;8.30;7.60;;;;;;;27.89;58.96;97721.21;110231;1245;69106;-67
2023/08/20 06:51:27;;;;;;;8.90;8.00;;;;;;;27.68;58.00;97721.68;110205;1245;69700;-68
2023/08/20 06:53:57;;;;;;;8.60;7.80;;;;;;;27.72;57.34;97722.13;110177;1245;59814;-68
2023/08/20 06:56:26;;;;;;;7.90;7.10;;;;;;;28.03;57.44;97728.52;110182;1241;59682;-69
2023/08/20 06:58:56;;;;;;;;;;;;;;;28.22;56.50;97727.79;110154;1243;71027;-66
2023/08/20 07:01:25;;;;;;;8.90;8.10;;;;;;;28.45;56.63;97726.73;110202;1241;68241;-67
2023/08/20 07:03:55;;;;;;;9.10;8.20;;;;;;;28.30;57.15;97729.51;110209;1246;69127;-67
2023/08/20 07:06:25;;;;;;;8.30;7.60;;;;;;;28.72;55.92;97732.16;110237;1243;59741;-64
2023/08/20 07:08:53;;;;;;;8.80;8.00;;;;;;;29.09;56.74;97730.20;110172;1245;60064;-68
2023/08/20 07:11:22;;;;;;;9.50;8.50;;;;;;;29.12;54.89;97726.58;110150;1243;71410;-67
2023/08/20 07:13:52;;;;;;;8.40;7.60;;;;;;;28.98;54.37;97732.86;110104;1245;69264;-66
2023/08/20 07:16:21;;;;;;;9.80;7.50;;;;;;;29.01;54.75;97730.04;110111;1243;69882;-66
2023/08/20 07:18:49;;;;;;;;;;;;;;;28.95;54.78;97733.15;109779;1241;601262;-66
2023/08/20 07:21:19;;;;;;;8.10;7.40;;;;;;;29.22;54.83;97733.71;110143;1245;59725;-66
2023/08/20 07:23:50;;;;;;;7.60;6.80;;;;;;;29.48;54.69;97734.16;110195;1245;71241;-66
2023/08/20 07:26:19;;;;;;;7.50;6.70;;;;;;;29.62;53.50;97731.33;110183;1244;69838;-66
2023/08/20 07:28:57;;;;;;;7.00;6.30;;;;;;;29.72;53.02;97732.91;110171;1245;67769;-66
2023/08/20 07:31:29;;;;;;;6.90;6.30;;;;;;;30.32;52.54;97733.36;110144;1245;59747;-67
2023/08/20 07:34:00;;;;;;;6.90;6.30;;;;;;;30.75;51.24;97734.05;110156;1243;59673;-67
2023/08/20 07:36:32;;;;;;;6.40;5.90;;;;;;;30.80;51.63;97732.27;110163;1244;71771;-67
2023/08/20 07:39:01;;;;;;;6.00;5.50;;;;;;;31.36;50.14;97732.35;110137;1244;69876;-66
2023/08/20 07:41:30;;;;;;;6.00;5.40;;;;;;;31.48;48.11;97731.65;110217;1245;69911;-67
2023/08/20 07:44:00;;;;;;;6.60;5.90;;;;;;;31.45;47.48;97729.96;110201;1251;59686;-67
2023/08/20 07:46:29;;;;;;;6.30;5.70;;;;;;;31.27;47.11;97727.27;110198;1245;59735;-65
2023/08/20 07:48:58;;;;;;;6.10;5.60;;;;;;;30.96;48.03;97724.94;110184;1246;71246;-67
2023/08/20 07:51:28;;;;;;;5.50;5.00;;;;;;;31.05;47.92;97721.38;110201;1244;69845;-67
2023/08/20 07:53:58;;;;;;;5.80;5.30;;;;;;;31.24;47.03;97716.56;110278;1241;69296;-66
2023/08/20 07:56:27;;;;;;;6.30;5.70;;;;;;;31.57;47.01;97723.35;110234;1245;59704;-66
2023/08/20 07:58:55;;;;;;;6.70;5.60;;;;;;;31.82;46.11;97717.69;110148;1245;59684;-67
2023/08/20 08:01:25;;;;;;;6.60;5.70;;;;;;;31.90;45.48;97720.90;110278;1241;72345;-66
2023/08/20 08:03:54;;;;;;;6.60;5.80;;;;;;;31.64;45.38;97717.77;110156;1243;69812;-67
2023/08/20 08:06:24;;;;;;;6.60;5.90;;;;;;;31.84;44.54;97719.10;110148;1241;70148;-69
2023/08/20 08:08:53;;;;;;;6.00;4.90;;;;;;;31.76;44.82;97720.30;110137;1241;59658;-66
2023/08/20 08:11:22;;;;;;;5.40;4.90;;;;;;;31.68;44.53;97720.83;110290;1245;59701;-66
2023/08/20 08:13:51;;;;;;;5.70;5.20;;;;;;;31.91;44.83;97717.64;110181;1245;71958;-66
2023/08/20 08:16:20;;;;;;;5.90;5.30;;;;;;;32.02;43.35;97715.89;110191;1243;69180;-66
2023/08/20 08:18:49;;;;;;;6.00;5.10;;;;;;;32.08;42.18;97713.90;110172;1241;69893;-66
2023/08/20 08:21:19;;;;;;;5.10;4.70;;;;;;;31.65;42.40;97710.34;110136;1251;59769;-66
2023/08/20 08:23:48;;;;;;;5.10;4.70;;;;;;;31.95;41.15;97710.09;110283;1243;59595;-66
2023/08/20 08:26:17;;;;;;;5.10;4.60;;;;;;;32.29;40.92;97707.32;110134;1243;71985;-66
2023/08/20 08:28:46;;;;;;;4.50;4.10;;;;;;;32.57;39.46;97707.59;110238;1245;69019;-66
2023/08/20 08:31:15;;;;;;;4.50;4.10;;;;;;;32.98;38.31;97710.05;110165;1246;68503;-67
2023/08/20 08:33:44;;;;;;;5.70;5.00;;;;;;;33.27;37.24;97706.31;110186;1243;59676;-66
2023/08/20 08:36:15;;;;;;;4.80;4.40;;;;;;;33.33;36.24;97713.38;110102;1244;59707;-66
2023/08/20 08:38:44;;;;;;;4.80;4.30;;;;;;;33.36;36.54;97712.61;110107;1244;71368;-64
2023/08/20 08:41:15;;;;;;;4.80;4.00;;;;;;;33.87;36.22;97708.81;110145;1245;69912;-66
2023/08/20 08:43:46;;;;;;;4.30;3.60;;;;;;;34.29;35.81;97711.02;110201;1241;69836;-66
2023/08/20 08:46:16;;;;;;;5.10;4.10;;;;;;;34.58;35.28;97708.53;110202;1245;59735;-67
2023/08/20 08:48:47;;;;;;;4.50;4.10;;;;;;;35.01;35.17;97708.11;110198;1252;59679;-65
2023/08/20 08:51:16;;;;;;;4.40;4.00;;;;;;;35.32;34.43;97708.10;110190;1245;70457;-66
2023/08/20 08:53:47;;;;;;;5.50;4.80;;;;;;;35.25;34.11;97704.90;110212;1246;69585;-66
2023/08/20 08:56:17;;;;;;;4.50;4.10;;;;;;;34.65;34.05;97705.29;110137;1248;69101;-66
2023/08/20 08:58:47;;;;;;;5.00;4.50;;;;;;;34.08;34.46;97703.14;110111;1251;59731;-64
2023/08/20 09:01:16;;;;;;;4.80;4.40;;;;;;;33.88;34.61;97700.00;110213;1247;59718;-67
2023/08/20 09:03:47;;;;;;;4.40;4.00;;;;;;;34.45;34.75;97702.48;112017;1241;71329;-67
2023/08/20 09:06:15;;;;;;;5.70;4.60;;;;;;;34.53;34.24;97705.44;111009;1245;69241;-65
2023/08/20 09:08:44;;;;;;;4.40;3.90;;;;;;;34.32;33.81;97706.64;110118;1241;69278;-66
2023/08/20 09:11:13;;;;;;;4.90;4.20;;;;;;;34.79;33.49;97706.10;110111;1241;59731;-66
2023/08/20 09:13:43;;;;;;;4.90;4.40;;;;;;;35.02;32.55;97704.75;110249;1244;59669;-66
2023/08/20 09:16:13;;;;;;;4.60;3.90;;;;;;;35.41;33.52;97702.71;110174;1245;71979;-66
2023/08/20 09:18:45;;;;;;;4.60;3.60;;;;;;;36.01;32.62;97706.23;110081;1244;69196;-65
2023/08/20 09:21:14;;;;;;;3.80;3.40;;;;;;;36.56;32.06;97706.61;110123;1252;69277;-66
2023/08/20 09:23:46;;;;;;;4.00;3.60;;;;;;;36.76;31.78;97705.73;110176;1246;59725;-66
2023/08/20 09:26:15;;;;;;;5.20;4.20;;;;;;;37.38;31.08;97706.48;110163;1241;59683;-65
2023/08/20 09:28:46;;;;;;;4.80;4.30;;;;;;;37.59;30.11;97704.52;110233;1245;71990;-66
2023/08/20 09:31:15;;;;;;;4.80;3.40;;;;;;;37.75;29.59;97706.63;110179;1246;69126;-66
2023/08/20 09:33:51;;;;;;;4.10;3.70;;;;;;;37.41;28.77;97703.41;110124;1241;68982;-65
2023/08/20 09:36:34;;;;;;;4.50;4.10;;;;;;;37.86;29.41;97697.27;110087;1243;59782;-66
2023/08/20 09:39:03;;;;;;;4.60;4.20;;;;;;;37.26;28.53;97694.27;110506;1244;59670;-66
2023/08/20 09:41:34;;;;;;;4.10;3.70;;;;;;;36.78;29.07;97699.62;110147;1242;71545;-66
2023/08/20 09:44:06;;;;;;;4.30;3.80;;;;;;;36.80;30.66;97701.32;110143;1245;69817;-66
2023/08/20 09:46:36;;;;;;;4.60;3.20;;;;;;;37.11;29.68;97705.62;110261;1245;69094;-66
2023/08/20 09:49:07;;;;;;;4.00;3.70;;;;;;;37.37;29.26;97700.48;110143;1242;59708;-65
2023/08/20 09:51:37;;;;;;;3.80;3.40;;;;;;;37.22;30.56;97694.79;110158;1245;59708;-67
2023/08/20 09:54:31;;;;;;;4.60;4.20;;;;;;;37.82;29.08;97693.84;110253;1241;71371;-66
2023/08/20 09:57:03;;;;;;;4.90;4.40;;;;;;;38.43;28.04;97690.88;110074;1244;69247;-66
2023/08/20 09:59:35;;;;;;;3.80;3.50;;;;;;;38.40;27.44;97693.95;110065;1246;70101;-65
2023/08/20 10:02:05;;;;;;;4.10;3.60;;;;;;;38.19;27.56;97691.30;110195;1248;59675;-65
2023/08/20 10:04:34;;;;;;;3.70;3.40;;;;;;;38.22;27.61;97694.72;110136;1246;59699;-65
2023/08/20 10:07:04;;;;;;;4.20;3.70;;;;;;;38.91;28.77;97694.30;110351;1243;71947;-67
2023/08/20 10:09:33;;;;;;;4.60;4.20;;;;;;;39.48;26.66;97694.77;110161;1241;69121;-66
2023/08/20 10:12:03;;;;;;;3.30;3.00;;;;;;;39.25;26.64;97694.36;110234;1243;69221;-67
2023/08/20 10:14:32;;;;;;;4.20;3.30;;;;;;;39.31;27.45;97693.75;110086;1251;59601;-66
2023/08/20 10:17:09;;;;;;;4.70;3.30;;;;;;;39.76;26.31;97691.92;110158;1245;59747;-67
2023/08/20 10:19:38;;;;;;;3.40;3.10;;;;;;;39.56;25.67;97691.82;110151;1241;71939;-66
2023/08/20 10:22:07;;;;;;;3.80;3.40;;;;;;;39.74;26.41;97684.50;110129;1243;68329;-66
2023/08/20 10:24:51;;;;;;;4.10;3.70;;;;;;;40.01;25.88;97683.70;110204;1245;69305;-67
2023/08/20 10:27:31;;;;;;;4.40;4.00;;;;;;;40.39;26.01;97683.05;110197;1243;59731;-67
2023/08/20 10:30:01;;;;;;;4.60;4.20;;;;;;;40.62;25.30;97681.59;110163;1244;59630;-67
2023/08/20 10:32:48;;;;;;;4.40;3.90;;;;;;;40.43;25.50;97679.75;110178;1242;71250;-67
2023/08/20 10:35:25;;;;;;;3.50;3.10;;;;;;;40.44;25.15;97678.52;110152;1243;69667;-65
2023/08/20 10:38:02;;;;;;;5.40;4.10;;;;;;;40.06;25.48;97675.04;110044;1245;69874;-63
2023/08/20 10:40:54;;;;;;;3.50;3.20;;;;;;;39.38;26.03;97674.80;110075;1245;59792;-65
2023/08/20 10:43:27;;;;;;;3.90;3.50;;;;;;;39.12;25.92;97672.11;110087;1249;59713;-65
2023/08/20 10:46:06;;;;;;;3.70;3.40;;;;;;;39.48;25.83;97668.73;110058;1245;71897;-65
2023/08/20 10:48:39;;;;;;;4.10;3.00;;;;;;;38.98;25.94;97664.95;110081;1245;68732;-64
2023/08/20 10:51:38;;;;;;;4.70;4.20;;;;;;;38.95;26.18;97662.69;110022;1246;69604;-66
2023/08/20 10:54:09;;;;;;;3.50;3.20;;;;;;;37.97;26.77;97655.81;109810;1245;59705;-65
2023/08/20 10:56:54;;;;;;;3.10;2.90;;;;;;;38.36;26.72;97658.53;109755;1245;59754;-66
2023/08/20 10:59:27;;;;;;;4.10;3.60;;;;;;;39.43;26.63;97652.54;109839;1243;72003;-66
2023/08/20 11:01:58;;;;;;;4.60;3.80;;;;;;;39.88;25.50;97644.48;109863;1245;69239;-65
2023/08/20 11:04:34;;;;;;;3.50;3.20;;;;;;;40.11;25.15;97640.87;109851;1245;70222;-65
2023/08/20 11:07:04;;;;;;;5.50;3.40;;;;;;;40.41;25.44;97641.00;109820;1245;59750;-66
2023/08/20 11:09:33;;;;;;;3.90;3.60;;;;;;;40.63;25.20;97641.02;110007;1245;59825;-66
2023/08/20 11:12:03;;;;;;;5.70;4.20;;;;;;;40.31;24.65;97639.20;109819;1245;71983;-66
2023/08/20 11:14:32;;;;;;;4.00;3.50;;;;;;;40.11;24.78;97635.08;109842;1246;69640;-66
2023/08/20 11:17:01;;;;;;;4.40;4.00;;;;;;;40.15;26.14;97637.02;109974;1244;69570;-67
2023/08/20 11:19:30;;;;;;;7.20;6.60;;;;;;;40.54;25.26;97635.59;109990;1243;59742;-65
2023/08/20 11:22:00;;;;;;;4.80;4.40;;;;;;;40.43;24.48;97634.38;109837;1246;59672;-65
2023/08/20 11:24:30;;;;;;;6.30;5.70;;;;;;;40.90;24.28;97632.58;109955;1246;71355;-65
2023/08/20 11:26:59;;;;;;;5.00;4.40;;;;;;;41.33;23.87;97624.70;109954;1246;69811;-65
2023/08/20 11:29:29;;;;;;;3.80;3.50;;;;;;;41.84;24.11;97620.05;109815;1246;69846;-66
2023/08/20 11:32:00;;;;;;;5.00;4.50;;;;;;;41.87;24.24;97618.31;109736;1246;59722;-65
2023/08/20 11:34:31;;;;;;;4.80;4.40;;;;;;;41.65;23.53;97617.35;109856;1246;59633;-65
2023/08/20 11:37:02;;;;;;;4.70;4.30;;;;;;;41.31;23.10;97620.59;109995;1246;71984;-65
2023/08/20 11:39:31;;;;;;;8.10;7.40;;;;;;;41.77;23.99;97614.50;109775;1245;69878;-65
2023/08/20 11:42:01;;;;;;;4.10;3.70;;;;;;;41.55;22.83;97614.09;109771;1244;69728;-66